createdAt,value
2023-02-03T00:02:19.625Z,98.80
2023-02-03T00:04:46.353Z,98.90
2023-02-03T00:07:13.742Z,98.80
2023-02-03T00:09:40.935Z,98.80
2023-02-03T00:12:07.779Z,98.70
2023-02-03T00:14:34.611Z,98.80
2023-02-03T00:17:01.326Z,99.00
2023-02-03T00:19:28.053Z,98.90
2023-02-03T00:21:54.830Z,98.80
2023-02-03T00:24:23.455Z,98.80
2023-02-03T00:26:50.196Z,98.80
2023-02-03T00:29:18.710Z,98.80
2023-02-03T00:31:45.479Z,98.90
2023-02-03T00:34:12.283Z,98.80
2023-02-03T00:36:39.597Z,98.80
2023-02-03T00:39:07.148Z,99.00
2023-02-03T00:41:33.896Z,98.90
2023-02-03T00:44:00.660Z,98.90
2023-02-03T00:46:27.384Z,98.90
2023-02-03T00:48:54.130Z,98.80
2023-02-03T00:51:21.571Z,99.10
2023-02-03T00:53:48.537Z,98.90
2023-02-03T00:56:15.402Z,98.90
2023-02-03T00:58:42.503Z,98.80
2023-02-03T01:01:09.288Z,99.00
2023-02-03T01:03:36.099Z,98.80
2023-02-03T01:06:16.478Z,99.20
2023-02-03T01:08:43.288Z,99.00
2023-02-03T01:11:12.809Z,98.90
2023-02-03T01:13:40.013Z,98.90
2023-02-03T01:16:10.761Z,99.00
2023-02-03T01:18:38.041Z,99.00
2023-02-03T01:21:06.330Z,99.20
2023-02-03T01:23:33.055Z,99.00
2023-02-03T01:26:02.243Z,98.90
2023-02-03T01:28:29.027Z,98.90
2023-02-03T01:30:55.777Z,99.10
2023-02-03T01:33:22.572Z,98.90
2023-02-03T01:35:49.451Z,99.00
2023-02-03T01:38:16.157Z,99.10
2023-02-03T01:40:45.672Z,99.10
2023-02-03T01:43:28.537Z,99.00
2023-02-03T01:45:55.350Z,99.00
2023-02-03T01:48:22.131Z,98.90
2023-02-03T01:50:48.899Z,98.90
2023-02-03T01:53:15.742Z,99.10
2023-02-03T01:55:44.552Z,99.10
2023-02-03T01:58:11.304Z,99.10
2023-02-03T02:00:39.030Z,99.00
2023-02-03T02:03:06.096Z,98.90
2023-02-03T02:05:35.325Z,99.00
2023-02-03T02:08:02.860Z,99.20
2023-02-03T02:10:30.556Z,99.00
2023-02-03T02:12:58.127Z,99.00
2023-02-03T02:15:36.674Z,99.10
2023-02-03T02:18:17.688Z,99.10
2023-02-03T02:20:47.170Z,99.00
2023-02-03T02:23:13.862Z,99.00
2023-02-03T02:25:40.620Z,99.00
2023-02-03T02:28:25.998Z,99.00
2023-02-03T02:30:52.943Z,99.10
2023-02-03T02:33:20.291Z,99.10
2023-02-03T02:36:07.661Z,99.00
2023-02-03T02:38:43.691Z,99.20
2023-02-03T02:41:12.861Z,99.10
2023-02-03T02:43:58.709Z,99.10
2023-02-03T02:46:29.166Z,99.10
2023-02-03T02:49:04.779Z,99.10
2023-02-03T02:51:33.169Z,99.10
2023-02-03T02:54:02.658Z,99.30
2023-02-03T02:56:31.682Z,99.10
2023-02-03T02:59:02.814Z,99.20
2023-02-03T03:01:29.656Z,99.00
2023-02-03T03:03:56.958Z,99.00
2023-02-03T03:06:32.881Z,99.30
2023-02-03T03:09:29.745Z,99.10
2023-02-03T03:12:00.600Z,99.10
2023-02-03T03:14:30.096Z,99.10
2023-02-03T03:16:59.901Z,99.10
2023-02-03T03:19:29.686Z,99.10
2023-02-03T03:21:59.065Z,99.20
2023-02-03T03:24:30.854Z,99.20
2023-02-03T03:27:01.845Z,99.30
2023-02-03T03:29:28.666Z,99.00
2023-02-03T03:31:55.625Z,99.00
2023-02-03T03:34:22.482Z,98.90
2023-02-03T03:37:01.036Z,99.10
2023-02-03T03:39:27.781Z,99.00
2023-02-03T03:41:54.474Z,99.00
2023-02-03T03:44:22.549Z,98.90
2023-02-03T03:46:53.267Z,98.90
2023-02-03T03:49:21.465Z,99.20
2023-02-03T03:51:50.524Z,99.10
2023-02-03T03:54:19.020Z,99.10
2023-02-03T03:57:00.343Z,99.10
2023-02-03T03:59:29.352Z,99.00
2023-02-03T04:01:57.353Z,99.10
2023-02-03T04:04:25.549Z,99.00
2023-02-03T04:06:53.548Z,99.00
2023-02-03T04:09:20.399Z,99.00
2023-02-03T04:12:02.104Z,98.80
2023-02-03T04:14:30.360Z,98.80
2023-02-03T04:16:57.744Z,98.90
2023-02-03T04:19:25.021Z,98.70
2023-02-03T04:21:51.822Z,98.80
2023-02-03T04:24:18.550Z,98.90
2023-02-03T04:26:45.381Z,99.10
2023-02-03T04:29:12.108Z,99.00
2023-02-03T04:31:38.891Z,98.90
2023-02-03T04:34:06.285Z,99.00
2023-02-03T04:36:33.104Z,98.90
2023-02-03T04:38:59.837Z,98.90
2023-02-03T04:41:26.664Z,99.00
2023-02-03T04:43:53.371Z,98.90
2023-02-03T04:46:20.236Z,98.70
2023-02-03T04:48:47.035Z,98.70
2023-02-03T04:51:13.773Z,98.70
2023-02-03T04:53:40.485Z,98.60
2023-02-03T04:56:07.391Z,98.40
2023-02-03T04:58:34.115Z,98.50
2023-02-03T05:01:05.692Z,98.40
2023-02-03T05:03:32.628Z,98.40
2023-02-03T05:05:59.838Z,98.40
2023-02-03T05:08:26.600Z,98.50
2023-02-03T05:10:53.342Z,98.50
2023-02-03T05:13:20.072Z,98.70
2023-02-03T05:15:46.777Z,98.40
2023-02-03T05:18:13.581Z,98.40
2023-02-03T05:20:40.319Z,98.40
2023-02-03T05:23:07.093Z,98.50
2023-02-03T05:25:33.852Z,98.60
2023-02-03T05:28:00.636Z,98.70
2023-02-03T05:30:27.654Z,98.80
2023-02-03T05:32:54.613Z,98.70
2023-02-03T05:35:21.356Z,98.80
2023-02-03T05:37:49.097Z,98.60
2023-02-03T05:40:34.563Z,98.60
2023-02-03T05:43:01.355Z,98.70
2023-02-03T05:45:28.147Z,98.80
2023-02-03T05:47:55.026Z,99.00
2023-02-03T05:50:22.909Z,98.80
2023-02-03T05:52:50.158Z,98.80
2023-02-03T05:55:17.131Z,98.80
2023-02-03T05:57:43.836Z,98.90
2023-02-03T06:00:10.903Z,98.80
2023-02-03T06:02:37.709Z,98.70
2023-02-03T06:05:04.564Z,98.80
2023-02-03T06:07:31.282Z,98.80
2023-02-03T06:09:58.171Z,98.70
2023-02-03T06:12:26.457Z,98.70
2023-02-03T06:14:54.249Z,98.50
2023-02-03T06:17:21.028Z,98.60
2023-02-03T06:19:47.751Z,98.50
2023-02-03T06:22:14.464Z,98.70
2023-02-03T06:24:41.346Z,98.70
2023-02-03T06:27:08.063Z,98.70
2023-02-03T06:29:34.797Z,98.70
2023-02-03T06:32:01.653Z,98.80
2023-02-03T06:34:28.552Z,98.70
2023-02-03T06:36:55.256Z,98.70
2023-02-03T06:39:22.107Z,98.80
2023-02-03T06:41:49.199Z,98.80
2023-02-03T06:44:15.931Z,98.80
2023-02-03T06:46:42.686Z,98.70
2023-02-03T06:49:09.401Z,98.80
2023-02-03T06:51:36.236Z,98.70
2023-02-03T06:54:06.174Z,98.70
2023-02-03T06:56:32.881Z,98.70
2023-02-03T06:58:59.593Z,98.60
2023-02-03T07:01:26.482Z,98.60
2023-02-03T07:03:53.347Z,98.50
2023-02-03T07:06:20.085Z,98.70
2023-02-03T07:08:46.825Z,98.50
2023-02-03T07:11:13.567Z,98.50
2023-02-03T07:13:40.294Z,98.70
2023-02-03T07:16:07.286Z,98.50
2023-02-03T07:18:46.888Z,98.60
2023-02-03T07:21:15.136Z,98.50
2023-02-03T07:23:41.919Z,98.70
2023-02-03T07:26:10.131Z,98.70
2023-02-03T07:28:37.025Z,98.70
2023-02-03T07:31:08.195Z,98.60
2023-02-03T07:33:42.393Z,98.60
2023-02-03T07:36:10.346Z,98.70
2023-02-03T07:38:38.236Z,98.70
2023-02-03T07:41:05.439Z,98.70
2023-02-03T07:43:32.307Z,98.60
2023-02-03T07:45:59.329Z,98.60
2023-02-03T07:48:26.052Z,98.70
2023-02-03T07:50:52.976Z,98.50
2023-02-03T07:53:19.834Z,98.70
2023-02-03T07:55:46.622Z,98.70
2023-02-03T07:58:13.368Z,98.40
2023-02-03T08:00:40.126Z,98.70
2023-02-03T08:03:06.879Z,98.70
2023-02-03T08:05:33.660Z,98.60
2023-02-03T08:08:00.510Z,98.70
2023-02-03T08:10:27.646Z,98.80
2023-02-03T08:12:55.537Z,98.70
2023-02-03T08:15:22.317Z,98.70
2023-02-03T08:17:49.792Z,98.50
2023-02-03T08:20:17.271Z,98.60
2023-02-03T08:22:44.008Z,98.60
2023-02-03T08:25:11.121Z,98.50
2023-02-03T08:27:38.148Z,98.60
2023-02-03T08:30:05.878Z,98.60
2023-02-03T08:32:32.960Z,98.60
2023-02-03T08:34:59.867Z,98.80
2023-02-03T08:37:26.736Z,98.60
2023-02-03T08:39:53.896Z,98.70
2023-02-03T08:42:20.866Z,98.80
2023-02-03T08:44:49.292Z,98.90
2023-02-03T08:47:16.168Z,98.60
2023-02-03T08:49:46.025Z,98.80
2023-02-03T08:52:13.565Z,98.70
2023-02-03T08:54:40.545Z,98.50
2023-02-03T08:57:07.751Z,98.60
2023-02-03T08:59:38.013Z,98.60
2023-02-03T09:02:05.266Z,98.60
2023-02-03T09:04:33.609Z,98.70
2023-02-03T09:07:01.133Z,98.70
2023-02-03T09:09:29.098Z,98.80
2023-02-03T09:12:02.074Z,98.80
2023-02-03T09:14:29.593Z,98.80
2023-02-03T09:16:56.478Z,98.70
2023-02-03T09:19:23.408Z,98.60
2023-02-03T09:21:50.779Z,98.50
2023-02-03T09:24:18.618Z,98.70
2023-02-03T09:26:45.691Z,98.70
2023-02-03T09:29:13.022Z,98.90
2023-02-03T09:31:39.851Z,98.90
2023-02-03T09:34:06.794Z,98.80
2023-02-03T09:36:33.601Z,98.90
2023-02-03T09:39:00.398Z,98.70
2023-02-03T09:41:45.717Z,98.90
2023-02-03T09:44:12.574Z,98.80
2023-02-03T09:46:42.110Z,98.70
2023-02-03T09:49:11.918Z,98.80
2023-02-03T09:51:49.473Z,98.90
2023-02-03T09:54:26.835Z,98.70
2023-02-03T09:56:55.745Z,98.80
2023-02-03T09:59:22.978Z,98.70
2023-02-03T10:02:00.134Z,98.70
2023-02-03T10:04:49.061Z,98.80
2023-02-03T10:07:25.556Z,98.80
2023-02-03T10:10:10.522Z,98.70
2023-02-03T10:12:43.477Z,98.90
2023-02-03T10:15:18.388Z,98.70
2023-02-03T10:17:51.076Z,98.80
2023-02-03T10:20:21.818Z,98.80
2023-02-03T10:22:53.435Z,98.70
2023-02-03T10:25:25.115Z,98.80
2023-02-03T10:27:58.591Z,98.80
2023-02-03T10:30:27.346Z,98.80
2023-02-03T10:32:55.821Z,98.70
2023-02-03T10:35:24.691Z,98.80
2023-02-03T10:37:57.781Z,98.80
2023-02-03T10:40:26.426Z,98.70
2023-02-03T10:43:12.315Z,98.70
2023-02-03T10:45:39.476Z,98.60
2023-02-03T10:48:11.150Z,98.80
2023-02-03T10:50:41.285Z,98.70
2023-02-03T10:53:26.174Z,98.70
2023-02-03T10:56:01.660Z,98.90
2023-02-03T10:58:29.714Z,98.90
2023-02-03T11:01:08.895Z,98.70
2023-02-03T11:03:35.889Z,98.90
2023-02-03T11:06:07.271Z,98.90
2023-02-03T11:08:34.977Z,98.80
2023-02-03T11:11:03.221Z,98.80
2023-02-03T11:13:30.022Z,98.50
2023-02-03T11:16:25.991Z,98.80
2023-02-03T11:18:57.335Z,98.80
2023-02-03T11:21:26.904Z,98.60
2023-02-03T11:23:56.643Z,98.60
2023-02-03T11:26:46.759Z,98.80
2023-02-03T11:29:24.202Z,98.70
2023-02-03T11:31:58.646Z,98.70
2023-02-03T11:34:27.834Z,98.80
2023-02-03T11:36:54.721Z,98.70
2023-02-03T11:39:25.409Z,99.00
2023-02-03T11:41:52.191Z,98.90
2023-02-03T11:44:20.488Z,98.90
2023-02-03T11:46:48.845Z,98.90
2023-02-03T11:49:34.067Z,99.00
2023-02-03T11:52:27.526Z,98.90
2023-02-03T11:55:06.661Z,98.70
2023-02-03T11:57:52.118Z,99.00
2023-02-03T12:00:27.368Z,99.00
2023-02-03T12:03:12.080Z,99.00
2023-02-03T12:05:45.246Z,99.00
2023-02-03T12:08:24.182Z,98.90
2023-02-03T12:10:56.905Z,98.90
2023-02-03T12:13:23.669Z,98.90
2023-02-03T12:15:50.500Z,98.90
2023-02-03T12:18:17.245Z,99.00
2023-02-03T12:20:52.874Z,99.10
2023-02-03T12:23:38.559Z,99.10
2023-02-03T12:26:14.483Z,99.00
2023-02-03T12:28:55.014Z,99.10
2023-02-03T12:31:29.468Z,98.90
2023-02-03T12:34:16.603Z,98.90
2023-02-03T12:37:03.631Z,99.00
2023-02-03T12:39:33.218Z,99.10
2023-02-03T12:41:59.933Z,99.10
2023-02-03T12:44:33.377Z,99.10
2023-02-03T12:47:06.354Z,99.00
2023-02-03T12:49:33.133Z,99.20
2023-02-03T12:52:21.389Z,99.20
2023-02-03T12:54:48.287Z,99.30
2023-02-03T12:57:21.084Z,99.10
2023-02-03T13:00:11.250Z,99.10
2023-02-03T13:02:44.860Z,99.10
2023-02-03T13:05:19.439Z,99.10
2023-02-03T13:07:52.359Z,99.10
2023-02-03T13:10:33.182Z,99.10
2023-02-03T13:13:01.145Z,99.20
2023-02-03T13:15:32.105Z,99.20
2023-02-03T13:18:05.603Z,99.20
2023-02-03T13:20:36.118Z,99.20
2023-02-03T13:23:11.148Z,99.30
2023-02-03T13:25:43.784Z,99.30
2023-02-03T13:28:19.884Z,99.10
2023-02-03T13:30:52.485Z,99.00
2023-02-03T13:33:21.932Z,99.20
2023-02-03T13:36:11.708Z,99.10
2023-02-03T13:38:38.958Z,99.10
2023-02-03T13:41:15.858Z,99.20
2023-02-03T13:43:45.215Z,99.20
2023-02-03T13:46:24.605Z,99.00
2023-02-03T13:48:51.950Z,99.10
2023-02-03T13:51:21.151Z,99.20
2023-02-03T13:53:49.102Z,99.00
2023-02-03T13:56:26.020Z,99.10
2023-02-03T13:59:05.302Z,99.20
2023-02-03T14:01:40.103Z,99.20
2023-02-03T14:04:22.139Z,99.40
2023-02-03T14:06:49.059Z,99.20
2023-02-03T14:09:30.784Z,99.10
2023-02-03T14:12:17.430Z,99.30
2023-02-03T14:14:57.193Z,99.30
2023-02-03T14:17:36.148Z,99.10
2023-02-03T14:20:04.097Z,99.00
2023-02-03T14:22:31.381Z,99.20
2023-02-03T14:25:04.508Z,99.10
2023-02-03T14:27:31.597Z,99.10
2023-02-03T14:30:12.504Z,99.30
2023-02-03T14:32:48.389Z,99.20
2023-02-03T14:35:19.872Z,99.20
2023-02-03T14:38:00.602Z,99.30
2023-02-03T14:40:33.515Z,99.00
2023-02-03T14:43:19.219Z,99.10
2023-02-03T14:46:05.369Z,99.20
2023-02-03T14:48:47.519Z,99.20
2023-02-03T14:51:17.075Z,99.20
2023-02-03T14:54:02.334Z,99.10
2023-02-03T14:56:59.530Z,99.30
2023-02-03T14:59:29.312Z,99.40
2023-02-03T15:02:08.266Z,99.20
2023-02-03T15:04:35.179Z,99.40
2023-02-03T15:07:02.022Z,99.10
2023-02-03T15:09:31.848Z,99.00
2023-02-03T15:11:58.788Z,99.10
2023-02-03T15:14:27.014Z,99.30
2023-02-03T15:16:58.197Z,99.40
2023-02-03T15:19:26.910Z,99.30
2023-02-03T15:21:53.852Z,99.30
2023-02-03T15:24:23.988Z,99.00
2023-02-03T15:26:52.380Z,99.40
2023-02-03T15:29:22.039Z,99.30
2023-02-03T15:31:51.139Z,99.20
2023-02-03T15:34:17.994Z,99.40
2023-02-03T15:36:48.554Z,99.30
2023-02-03T15:39:26.182Z,99.40
2023-02-03T15:41:54.777Z,99.30
2023-02-03T15:44:25.259Z,99.30
2023-02-03T15:46:53.847Z,99.30
2023-02-03T15:49:23.752Z,99.50
2023-02-03T15:52:00.800Z,99.30
2023-02-03T15:54:40.009Z,99.20
2023-02-03T15:57:11.055Z,99.30
2023-02-03T15:59:46.355Z,99.30
2023-02-03T16:02:13.237Z,99.20
2023-02-03T16:04:40.029Z,99.40
2023-02-03T16:07:06.868Z,99.30
2023-02-03T16:09:35.164Z,99.40
2023-02-03T16:12:05.005Z,99.30
2023-02-03T16:14:36.377Z,99.50
2023-02-03T16:17:06.107Z,99.40
2023-02-03T16:19:38.117Z,99.30
2023-02-03T16:22:05.078Z,99.40
2023-02-03T16:24:41.153Z,99.40
2023-02-03T16:27:25.976Z,99.50
2023-02-03T16:30:33.848Z,99.60
2023-02-03T16:33:28.018Z,99.50
2023-02-03T16:36:17.676Z,99.40
2023-02-03T16:39:06.300Z,99.20
2023-02-03T16:41:51.554Z,99.20
2023-02-03T16:44:37.210Z,99.40
2023-02-03T16:47:23.120Z,99.40
2023-02-03T16:50:08.252Z,99.50
2023-02-03T16:52:35.094Z,99.40
2023-02-03T16:55:01.868Z,99.50
2023-02-03T16:57:28.585Z,99.20
2023-02-03T16:59:55.563Z,99.40
2023-02-03T17:02:22.375Z,99.30
2023-02-03T17:04:49.160Z,99.40
2023-02-03T17:07:15.925Z,99.40
2023-02-03T17:09:42.696Z,99.40
2023-02-03T17:12:09.660Z,99.50
2023-02-03T17:14:36.427Z,99.50
2023-02-03T17:17:05.115Z,99.30
2023-02-03T17:19:32.709Z,99.40
2023-02-03T17:21:59.482Z,99.50
2023-02-03T17:24:26.198Z,99.50
2023-02-03T17:26:54.796Z,99.40
2023-02-03T17:29:21.816Z,99.50
2023-02-03T17:31:48.595Z,99.40
2023-02-03T17:34:15.334Z,99.60
2023-02-03T17:36:42.277Z,99.40
2023-02-03T17:55:37.763Z,99.30
2023-02-03T17:58:04.571Z,99.30
2023-02-03T18:00:31.677Z,99.30
2023-02-03T18:02:58.790Z,99.50
2023-02-03T18:05:25.701Z,99.50
2023-02-03T18:07:52.607Z,99.40
2023-02-03T18:10:19.374Z,99.30
2023-02-03T18:12:46.302Z,99.40
2023-02-03T18:15:13.099Z,99.40
2023-02-03T18:17:39.815Z,99.40
2023-02-03T18:20:06.824Z,99.40
2023-02-03T18:22:34.615Z,99.40
2023-02-03T18:25:01.330Z,99.40
2023-02-03T18:27:28.176Z,99.40
2023-02-03T18:29:54.913Z,99.60
2023-02-03T18:32:21.647Z,99.40
2023-02-03T18:34:48.515Z,99.50
2023-02-03T18:37:15.297Z,99.40
2023-02-03T18:39:42.069Z,99.40
2023-02-03T18:42:08.982Z,99.30
2023-02-03T18:44:35.783Z,99.40
2023-02-03T18:47:07.053Z,99.50
2023-02-03T18:49:37.076Z,99.30
2023-02-03T18:52:04.376Z,99.40
2023-02-03T18:54:31.255Z,99.50
2023-02-03T18:57:00.869Z,99.60
2023-02-03T18:59:27.673Z,99.60
2023-02-03T19:01:54.508Z,99.20
2023-02-03T19:04:21.566Z,99.50
2023-02-03T19:06:48.396Z,99.40
2023-02-03T19:09:17.847Z,99.20
2023-02-03T19:11:45.167Z,99.50
2023-02-03T19:14:13.169Z,99.30
2023-02-03T19:16:40.112Z,99.40
2023-02-03T19:19:06.991Z,99.50
2023-02-03T19:21:33.790Z,99.60
2023-02-03T19:24:00.531Z,99.40
2023-02-03T19:26:28.085Z,99.60
2023-02-03T19:28:55.942Z,99.50
2023-02-03T19:31:22.805Z,99.50
2023-02-03T19:33:49.896Z,99.50
2023-02-03T19:36:16.782Z,99.40
2023-02-03T19:38:43.640Z,99.50
2023-02-03T19:41:11.865Z,99.40
2023-02-03T19:43:40.109Z,99.30
2023-02-03T19:46:07.756Z,99.40
2023-02-03T19:48:34.631Z,99.40
2023-02-03T19:51:01.400Z,99.30
2023-02-03T19:53:28.165Z,99.40
2023-02-03T19:55:54.962Z,99.40
2023-02-03T19:58:23.513Z,99.40
2023-02-03T20:00:50.456Z,99.40
2023-02-03T20:03:18.523Z,99.40
2023-02-03T20:05:45.703Z,99.20
2023-02-03T20:08:14.743Z,99.40
2023-02-03T20:10:42.573Z,99.30
2023-02-03T20:13:10.811Z,99.30
2023-02-03T20:15:37.735Z,99.40
2023-02-03T20:18:06.759Z,99.40
2023-02-03T20:20:33.770Z,99.40
2023-02-03T20:23:00.571Z,99.30
2023-02-03T20:25:27.461Z,99.50
2023-02-03T20:27:56.995Z,99.60
2023-02-03T20:30:23.906Z,99.40
2023-02-03T20:32:50.919Z,99.40
2023-02-03T20:35:17.692Z,99.50
2023-02-03T20:37:44.573Z,99.40
2023-02-03T20:40:18.321Z,99.40
2023-02-03T20:42:45.314Z,99.40
2023-02-03T20:45:19.200Z,99.40
2023-02-03T20:47:46.085Z,99.50
2023-02-03T20:50:16.943Z,99.40
2023-02-03T20:52:47.873Z,99.40
2023-02-03T20:55:17.035Z,99.40
2023-02-03T20:57:43.984Z,99.30
2023-02-03T21:00:15.726Z,99.40
2023-02-03T21:03:01.275Z,99.30
2023-02-03T21:05:29.488Z,99.50
2023-02-03T21:07:56.288Z,99.40
2023-02-03T21:10:23.703Z,99.60
2023-02-03T21:12:50.693Z,99.50
2023-02-03T21:15:18.259Z,99.40
2023-02-03T21:17:45.111Z,99.50
2023-02-03T21:20:29.067Z,99.30
2023-02-03T21:22:56.409Z,99.50
2023-02-03T21:25:31.277Z,99.50
2023-02-03T21:27:59.015Z,99.40
2023-02-03T21:30:30.951Z,99.50
2023-02-03T21:32:59.061Z,99.40
2023-02-03T21:35:28.773Z,99.40
2023-02-03T21:38:01.835Z,99.50
2023-02-03T21:40:30.507Z,99.50
2023-02-03T21:42:57.523Z,99.40
2023-02-03T21:45:26.234Z,99.50
2023-02-03T21:47:53.072Z,99.60
2023-02-03T21:50:32.319Z,99.50
2023-02-03T21:53:05.361Z,99.40
2023-02-03T21:55:32.157Z,99.50
2023-02-03T21:57:59.055Z,99.50
2023-02-03T22:00:37.344Z,99.60
2023-02-03T22:03:08.237Z,99.40
2023-02-03T22:05:37.769Z,99.40
2023-02-03T22:08:15.007Z,99.50
2023-02-03T22:10:41.819Z,99.40
2023-02-03T22:13:08.625Z,99.40
2023-02-03T22:15:35.362Z,99.60
2023-02-03T22:18:02.221Z,99.50
2023-02-03T22:20:29.424Z,99.40
2023-02-03T22:22:56.372Z,99.40
2023-02-03T22:25:23.378Z,99.60
2023-02-03T22:27:52.169Z,99.40
2023-02-03T22:30:19.794Z,99.70
2023-02-03T22:32:46.551Z,99.60
2023-02-03T22:35:13.337Z,99.40
2023-02-03T22:37:40.081Z,99.50
2023-02-03T22:40:07.251Z,99.60
2023-02-03T22:42:34.070Z,99.50
2023-02-03T22:45:00.820Z,99.60
2023-02-03T22:47:27.641Z,99.40
2023-02-03T22:49:54.371Z,99.50
2023-02-03T22:52:21.122Z,99.30
2023-02-03T22:54:47.944Z,99.50
2023-02-03T22:57:14.663Z,99.30
2023-02-03T22:59:41.432Z,99.60
2023-02-03T23:02:08.430Z,99.50
2023-02-03T23:04:35.253Z,99.50
2023-02-03T23:07:02.015Z,99.50
2023-02-03T23:09:28.892Z,99.40
2023-02-03T23:11:55.671Z,99.50
2023-02-03T23:14:22.433Z,99.60
2023-02-03T23:16:49.349Z,99.50
2023-02-03T23:19:16.374Z,99.60
2023-02-03T23:21:43.116Z,99.60
2023-02-03T23:24:10.008Z,99.40
2023-02-03T23:26:36.790Z,99.40
2023-02-03T23:29:03.635Z,99.40
2023-02-03T23:31:30.686Z,99.40
2023-02-03T23:34:15.970Z,99.40
2023-02-03T23:36:42.746Z,99.60
2023-02-03T23:39:09.750Z,99.50
2023-02-03T23:41:36.503Z,99.50
2023-02-03T23:44:03.293Z,99.30
2023-02-03T23:46:30.049Z,99.40
2023-02-03T23:48:56.897Z,99.40
2023-02-03T23:51:23.809Z,99.40
2023-02-03T23:53:50.556Z,99.40
2023-02-03T23:56:17.353Z,99.40
2023-02-03T23:58:44.237Z,99.40
